Time;durP1;ratioP1;P1;durP2;ratioP2;P2;SDS_P1;SDS_P2;PMS_P1;PMS_P2;Temp;Humidity;BMP_temperature;BMP_pressure;BME280_temperature;BME280_humidity;BME280_pressure;Samples;Min_cycle;Max_cycle;Signal;HPM_P1;HPM_P2
2022/08/23 00:01:29;;;;;;;1.75;1.30;;;25.30;50.90;;;;;;4997935;28;20028;-83
2022/08/23 00:03:59;;;;;;;2.90;1.27;;;25.30;51.00;;;;;;4997745;28;20052;-83
2022/08/23 00:06:26;;;;;;;1.75;1.33;;;25.20;50.90;;;;;;5015976;28;20081;-82
2022/08/23 00:08:53;;;;;;;2.08;1.25;;;25.20;51.00;;;;;;5015646;28;20042;-82
2022/08/23 00:11:29;;;;;;;2.42;1.40;;;25.20;50.90;;;;;;4997762;28;20535;-83
2022/08/23 00:13:56;;;;;;;1.67;1.23;;;25.20;51.00;;;;;;4997921;28;20091;-83
2022/08/23 00:16:22;;;;;;;1.42;1.30;;;25.20;51.00;;;;;;4983590;28;20018;-82
2022/08/23 00:18:48;;;;;;;1.30;1.20;;;25.10;51.00;;;;;;5019488;28;20101;-83
2022/08/23 00:21:13;;;;;;;2.65;1.50;;;25.10;51.00;;;;;;4983441;28;20029;-82
2022/08/23 00:23:39;;;;;;;1.95;1.38;;;25.10;51.00;;;;;;4984233;28;20053;-83
2022/08/23 00:26:05;;;;;;;2.50;1.48;;;25.10;51.10;;;;;;5015719;28;20030;-83
2022/08/23 00:28:31;;;;;;;2.03;1.38;;;25.10;51.10;;;;;;5015201;28;20030;-81
2022/08/23 00:30:57;;;;;;;2.42;1.50;;;25.10;51.10;;;;;;4965235;28;20505;-83
2022/08/23 00:33:24;;;;;;;2.08;1.50;;;25.10;51.20;;;;;;4981561;28;20033;-83
2022/08/23 00:35:50;;;;;;;2.42;1.40;;;25.00;51.20;;;;;;4980899;28;20041;-83
2022/08/23 00:38:16;;;;;;;2.35;1.42;;;25.00;51.20;;;;;;5014809;28;20026;-82
2022/08/23 00:40:44;;;;;;;3.03;1.70;;;25.00;51.20;;;;;;4997253;28;20168;-83
2022/08/23 00:49:09;;;;;;;2.17;1.50;;;24.90;51.30;;;;;;4984557;28;20091;-82
2022/08/23 00:51:45;;;;;;;1.95;1.40;;;24.90;51.30;;;;;;4997101;28;20073;-82
2022/08/23 00:54:15;;;;;;;2.78;1.50;;;24.80;51.30;;;;;;5014746;28;20037;-83
2022/08/23 00:56:42;;;;;;;1.90;1.50;;;24.90;51.40;;;;;;4965422;28;20482;-83
2022/08/23 00:59:10;;;;;;;1.95;1.60;;;24.80;51.40;;;;;;4965154;28;20041;-82
2022/08/23 01:01:36;;;;;;;2.22;1.27;;;24.80;51.40;;;;;;4981299;28;20038;-82
2022/08/23 01:04:02;;;;;;;2.42;1.50;;;24.80;51.40;;;;;;4980882;28;20505;-83
2022/08/23 01:06:44;;;;;;;2.83;1.67;;;24.80;51.50;;;;;;4996988;28;20037;-83
2022/08/23 01:09:15;;;;;;;1.92;1.35;;;24.80;51.50;;;;;;4997900;28;20034;-83
2022/08/23 01:11:59;;;;;;;2.03;1.48;;;24.70;51.50;;;;;;4996767;28;20030;-83
2022/08/23 01:14:40;;;;;;;3.38;1.40;;;24.70;51.60;;;;;;4997240;28;20113;-83
2022/08/23 01:17:13;;;;;;;2.08;1.40;;;24.70;51.60;;;;;;4997281;28;20497;-83
2022/08/23 01:19:47;;;;;;;1.88;1.55;;;24.70;51.60;;;;;;5014545;28;20085;-83
2022/08/23 01:22:13;;;;;;;;;;;24.60;51.60;;;;;;4997361;28;20026;-83
2022/08/23 01:24:39;;;;;;;1.42;1.30;;;24.60;51.60;;;;;;4996759;28;19905;-83
2022/08/23 01:27:06;;;;;;;2.22;1.50;;;24.60;51.60;;;;;;4981218;28;20050;-83
2022/08/23 01:29:32;;;;;;;1.90;1.60;;;24.60;51.70;;;;;;4996658;28;20046;-83
2022/08/23 01:31:58;;;;;;;2.10;1.33;;;24.50;51.70;;;;;;4981094;28;20085;-83
2022/08/23 01:34:26;;;;;;;2.05;1.60;;;24.60;51.80;;;;;;4980800;28;20034;-83
2022/08/23 01:36:54;;;;;;;1.73;1.40;;;24.50;51.80;;;;;;5013827;28;20029;-82
2022/08/23 01:39:20;;;;;;;3.22;1.60;;;24.50;51.80;;;;;;5013811;28;20463;-83
2022/08/23 01:41:45;;;;;;;1.95;1.50;;;24.50;52.50;;;;;;4980544;28;20040;-83
2022/08/23 01:44:13;;;;;;;2.08;1.40;;;24.50;51.90;;;;;;4996965;28;20030;-82
2022/08/23 01:46:46;;;;;;;2.13;1.60;;;24.50;51.90;;;;;;4995976;28;20179;-83
2022/08/23 01:49:12;;;;;;;2.78;1.55;;;24.40;52.00;;;;;;4996599;28;20095;-83
2022/08/23 01:51:40;;;;;;;3.97;1.60;;;24.50;52.00;;;;;;4996331;28;20053;-82
2022/08/23 01:54:07;;;;;;;1.55;1.38;;;24.40;52.00;;;;;;4996257;28;20435;-82
2022/08/23 01:56:34;;;;;;;3.22;1.67;;;24.40;52.00;;;;;;4980078;28;20033;-82
2022/08/23 01:59:00;;;;;;;2.47;1.42;;;24.40;52.00;;;;;;4996610;28;20029;-83
2022/08/23 02:01:31;;;;;;;2.17;1.58;;;24.40;52.00;;;;;;4981579;28;20037;-82
2022/08/23 02:03:56;;;;;;;3.08;1.65;;;24.40;52.10;;;;;;4980143;28;20030;-83
2022/08/23 02:06:22;;;;;;;2.50;1.48;;;24.30;52.10;;;;;;4964402;28;20026;-82
2022/08/23 02:09:00;;;;;;;2.78;1.63;;;24.30;52.10;;;;;;4971030;28;20044;-83
2022/08/23 02:11:38;;;;;;;1.70;1.30;;;24.30;52.10;;;;;;5003147;28;20034;-83
2022/08/23 02:14:09;;;;;;;1.95;1.33;;;24.30;52.20;;;;;;4994876;28;20030;-82
2022/08/23 02:16:50;;;;;;;2.50;1.75;;;24.20;52.20;;;;;;4996877;28;20022;-83
2022/08/23 02:19:17;;;;;;;1.42;1.33;;;24.20;52.20;;;;;;4980270;28;20044;-83
2022/08/23 02:21:44;;;;;;;3.08;1.70;;;24.20;52.20;;;;;;4979696;28;20030;-82
2022/08/23 02:24:22;;;;;;;3.00;1.50;;;24.20;52.30;;;;;;4980647;28;20383;-82
2022/08/23 02:26:51;;;;;;;2.13;1.50;;;24.20;52.40;;;;;;4996015;28;20061;-83
2022/08/23 02:29:20;;;;;;;2.50;1.52;;;24.20;52.30;;;;;;4995909;28;20058;-83
2022/08/23 02:31:48;;;;;;;2.28;1.63;;;24.10;52.30;;;;;;4980095;28;20025;-83
2022/08/23 02:34:16;;;;;;;2.45;1.60;;;24.10;52.40;;;;;;4979406;28;20471;-83
2022/08/23 02:36:42;;;;;;;1.92;1.70;;;24.10;52.40;;;;;;4979674;28;20378;-82
2022/08/23 02:39:09;;;;;;;3.40;1.75;;;24.10;52.40;;;;;;4995678;28;20046;-82
2022/08/23 02:41:36;;;;;;;3.10;1.67;;;24.10;52.50;;;;;;4995636;28;20029;-82
2022/08/23 02:44:03;;;;;;;3.85;1.77;;;24.00;52.40;;;;;;4995261;28;20154;-82
2022/08/23 02:46:29;;;;;;;2.58;1.63;;;24.00;52.40;;;;;;4995487;28;20033;-82
2022/08/23 02:48:55;;;;;;;2.15;1.50;;;24.00;52.50;;;;;;4979510;28;20125;-83
2022/08/23 02:51:23;;;;;;;1.55;1.33;;;24.00;52.50;;;;;;4979135;28;20520;-83
2022/08/23 02:53:49;;;;;;;2.85;1.60;;;24.00;52.50;;;;;;4980230;28;20511;-83
2022/08/23 02:56:17;;;;;;;1.63;1.40;;;24.00;52.50;;;;;;4995674;28;20044;-82
2022/08/23 02:58:44;;;;;;;2.42;1.60;;;23.90;52.50;;;;;;4965659;28;20136;-84
2022/08/23 03:01:26;;;;;;;2.60;1.60;;;23.90;52.60;;;;;;4998980;28;20045;-83
2022/08/23 03:03:56;;;;;;;2.85;1.70;;;23.90;52.70;;;;;;4999114;28;20037;-83
2022/08/23 03:06:21;;;;;;;2.90;1.90;;;23.90;52.60;;;;;;4982651;28;20030;-82
2022/08/23 03:08:47;;;;;;;2.03;1.63;;;23.80;52.60;;;;;;4982528;28;20060;-82
2022/08/23 03:11:16;;;;;;;2.17;1.75;;;23.80;52.60;;;;;;4982665;28;20080;-82
2022/08/23 03:13:47;;;;;;;2.17;1.50;;;23.80;52.70;;;;;;4999140;28;20029;-82
2022/08/23 03:16:14;;;;;;;2.40;1.70;;;23.80;52.70;;;;;;4982821;28;20061;-82
2022/08/23 03:18:45;;;;;;;2.80;1.98;;;23.80;52.70;;;;;;4998837;28;20410;-82
2022/08/23 03:21:11;;;;;;;2.80;1.80;;;23.80;52.80;;;;;;4983190;28;20117;-82
2022/08/23 03:23:38;;;;;;;2.47;1.73;;;23.80;52.80;;;;;;4982812;28;20025;-82
2022/08/23 03:26:08;;;;;;;3.33;1.80;;;23.70;52.80;;;;;;4982864;28;20478;-82
2022/08/23 03:28:36;;;;;;;2.33;1.70;;;23.70;52.80;;;;;;4982840;28;20025;-81
2022/08/23 03:31:03;;;;;;;2.53;1.75;;;23.70;52.80;;;;;;4983070;28;20108;-82
2022/08/23 03:33:33;;;;;;;2.38;1.90;;;23.70;52.90;;;;;;4998736;28;20034;-83
2022/08/23 03:36:07;;;;;;;2.10;1.70;;;23.60;52.90;;;;;;4998592;28;20034;-83
2022/08/23 03:38:34;;;;;;;3.00;1.80;;;23.60;52.80;;;;;;4998727;28;20045;-83
2022/08/23 03:41:02;;;;;;;2.30;1.75;;;23.60;52.90;;;;;;4999191;28;20056;-83
2022/08/23 03:43:28;;;;;;;3.55;1.70;;;23.60;52.90;;;;;;4998190;28;20033;-82
2022/08/23 03:45:54;;;;;;;3.10;2.08;;;23.60;52.90;;;;;;4982614;28;20026;-82
2022/08/23 03:48:21;;;;;;;2.78;1.70;;;23.60;52.90;;;;;;4982233;28;20066;-81
2022/08/23 03:50:47;;;;;;;2.67;2.00;;;23.50;52.90;;;;;;4998438;28;20423;-81
2022/08/23 03:53:13;;;;;;;2.00;1.70;;;23.50;53.60;;;;;;4998334;28;20044;-82
2022/08/23 03:55:42;;;;;;;2.58;1.98;;;23.50;53.00;;;;;;4982362;28;20107;-80
2022/08/23 03:58:10;;;;;;;2.47;1.55;;;23.50;53.00;;;;;;4998310;28;20046;-82
2022/08/23 04:00:37;;;;;;;2.78;1.80;;;23.50;53.00;;;;;;5011916;28;20036;-83
2022/08/23 04:03:03;;;;;;;2.15;1.70;;;23.40;53.00;;;;;;5016783;28;20060;-82
2022/08/23 04:05:31;;;;;;;2.22;1.70;;;23.40;53.10;;;;;;4986807;28;20029;-84
2022/08/23 04:08:11;;;;;;;2.00;1.65;;;23.40;53.10;;;;;;4998914;28;20026;-83
2022/08/23 04:10:40;;;;;;;2.20;1.73;;;23.40;53.20;;;;;;4981599;28;20057;-83
2022/08/23 04:13:07;;;;;;;2.95;1.88;;;23.30;53.10;;;;;;4981528;28;20108;-83
2022/08/23 04:15:34;;;;;;;3.28;2.00;;;23.30;53.20;;;;;;4998384;28;20025;-82
2022/08/23 04:18:00;;;;;;;2.38;1.75;;;23.30;53.20;;;;;;4981706;28;20030;-83
2022/08/23 04:20:27;;;;;;;2.78;2.05;;;23.30;53.30;;;;;;4981639;28;20064;-83
2022/08/23 04:23:03;;;;;;;3.45;1.92;;;23.30;53.30;;;;;;4968627;28;20030;-82
2022/08/23 04:25:34;;;;;;;2.03;1.75;;;23.20;53.30;;;;;;4982342;28;20055;-82
2022/08/23 04:28:00;;;;;;;2.47;1.63;;;23.20;53.30;;;;;;4981209;28;20053;-83
2022/08/23 04:30:27;;;;;;;2.15;1.85;;;23.20;53.40;;;;;;4981748;28;20416;-83
2022/08/23 04:32:53;;;;;;;3.42;1.80;;;23.20;53.40;;;;;;4997855;28;20088;-82
2022/08/23 04:35:20;;;;;;;2.67;1.65;;;23.20;53.40;;;;;;4981071;28;20062;-82
2022/08/23 04:37:45;;;;;;;2.78;1.88;;;23.10;53.40;;;;;;4981605;28;20437;-83
2022/08/23 04:42:56;;;;;;;;;;;23.10;53.50;;;;;;4997799;28;20444;-82
2022/08/23 04:45:23;;;;;;;2.28;1.52;;;23.10;53.40;;;;;;4965081;28;19956;-82
2022/08/23 04:47:51;;;;;;;2.70;1.75;;;23.10;53.40;;;;;;4980862;28;20030;-81
2022/08/23 04:50:17;;;;;;;2.22;1.80;;;23.00;53.60;;;;;;5015121;28;20128;-83
2022/08/23 04:53:02;;;;;;;;;;;23.00;53.70;;;;;;4987197;28;20096;-83
2022/08/23 04:55:32;;;;;;;2.53;1.77;;;23.00;53.60;;;;;;4981563;28;19917;-82
2022/08/23 04:58:05;;;;;;;3.03;1.70;;;23.00;53.60;;;;;;4996960;28;20030;-82
2022/08/23 05:00:36;;;;;;;2.47;1.85;;;22.90;53.80;;;;;;4981743;28;20044;-82
2022/08/23 05:03:02;;;;;;;2.88;1.90;;;22.90;53.80;;;;;;4964773;28;20026;-82
2022/08/23 05:05:28;;;;;;;2.40;1.98;;;22.90;53.90;;;;;;4981457;28;20030;-82
2022/08/23 05:07:54;;;;;;;2.60;1.85;;;22.90;53.90;;;;;;4980862;28;20419;-82
2022/08/23 05:10:20;;;;;;;2.22;1.90;;;22.90;54.60;;;;;;4980767;28;20034;-82
2022/08/23 05:12:50;;;;;;;3.53;1.90;;;22.90;54.00;;;;;;4965791;28;20130;-82
2022/08/23 05:15:18;;;;;;;2.65;1.80;;;22.80;54.00;;;;;;4980884;28;20041;-82
2022/08/23 05:17:47;;;;;;;2.50;1.73;;;22.80;54.00;;;;;;4980825;28;20034;-82
2022/08/23 05:20:13;;;;;;;3.13;2.00;;;22.80;54.10;;;;;;4996786;28;20533;-82
2022/08/23 05:22:40;;;;;;;2.88;1.90;;;22.80;54.10;;;;;;4979836;28;20034;-82
2022/08/23 05:25:48;;;;;;;2.30;1.70;;;22.80;54.20;;;;;;4970652;28;20455;-83
2022/08/23 05:28:17;;;;;;;2.50;1.80;;;22.80;54.20;;;;;;4996737;28;20028;-82
2022/08/23 05:30:52;;;;;;;2.58;1.90;;;22.80;54.20;;;;;;4996539;28;20528;-82
2022/08/23 05:33:18;;;;;;;2.38;2.15;;;22.80;54.30;;;;;;4996714;28;20032;-83
2022/08/23 05:35:44;;;;;;;2.88;2.15;;;22.70;54.30;;;;;;4980631;28;20134;-80
2022/08/23 05:38:09;;;;;;;2.58;1.63;;;22.70;54.30;;;;;;4996312;28;20045;-81
2022/08/23 05:40:35;;;;;;;2.28;1.70;;;22.70;54.40;;;;;;4996539;28;20029;-82
2022/08/23 05:43:08;;;;;;;2.38;1.90;;;22.70;54.40;;;;;;4966817;28;20059;-83
2022/08/23 05:45:33;;;;;;;2.30;1.90;;;22.70;54.40;;;;;;4997170;28;20458;-82
2022/08/23 05:48:00;;;;;;;2.22;1.92;;;22.70;54.50;;;;;;4987891;28;20098;-81
2022/08/23 05:50:32;;;;;;;3.10;2.17;;;22.70;54.50;;;;;;5014445;28;20448;-82
2022/08/23 05:52:57;;;;;;;2.25;1.90;;;22.70;54.60;;;;;;4993476;28;20037;-83
2022/08/23 05:55:23;;;;;;;2.97;1.90;;;22.60;54.60;;;;;;4987256;28;20060;-80
2022/08/23 05:58:02;;;;;;;2.90;2.00;;;22.60;54.60;;;;;;4974083;28;20033;-83
2022/08/23 06:00:28;;;;;;;3.17;2.03;;;22.60;54.70;;;;;;4966751;28;20042;-81
2022/08/23 06:02:59;;;;;;;3.47;2.15;;;22.60;54.70;;;;;;4982353;28;20034;-81
2022/08/23 06:05:25;;;;;;;2.95;2.10;;;22.60;54.80;;;;;;4996596;28;20029;-82
2022/08/23 06:07:51;;;;;;;2.83;1.90;;;22.60;54.80;;;;;;4982504;28;20475;-81
2022/08/23 06:10:20;;;;;;;3.42;2.30;;;22.70;54.90;;;;;;4980213;28;20068;-81
2022/08/23 06:12:51;;;;;;;2.55;2.17;;;22.70;54.90;;;;;;4980900;28;20030;-81
2022/08/23 06:15:16;;;;;;;3.55;2.28;;;22.70;54.90;;;;;;4979477;28;20030;-84
2022/08/23 06:17:42;;;;;;;3.28;2.15;;;22.70;55.00;;;;;;4964401;28;20033;-81
2022/08/23 06:20:09;;;;;;;3.10;2.40;;;22.70;55.00;;;;;;4963985;28;20395;-82
2022/08/23 06:22:55;;;;;;;3.58;2.40;;;22.70;55.00;;;;;;4982155;28;20381;-82
2022/08/23 06:25:21;;;;;;;2.88;2.25;;;22.70;55.00;;;;;;4963532;28;20034;-81
2022/08/23 06:28:06;;;;;;;;;;;22.70;55.00;;;;;;4996572;28;20057;-82
2022/08/23 06:30:31;;;;;;;2.35;1.90;;;22.70;54.90;;;;;;4963778;28;20231;-81
2022/08/23 06:33:00;;;;;;;3.03;2.20;;;22.70;54.90;;;;;;4966150;28;20026;-82
2022/08/23 06:35:45;;;;;;;2.00;1.80;;;22.80;55.10;;;;;;5002264;28;20116;-85
2022/08/23 06:38:18;;;;;;;2.83;1.98;;;22.80;55.10;;;;;;4984459;28;20378;-84
2022/08/23 06:40:48;;;;;;;3.17;2.33;;;22.80;55.10;;;;;;4983944;28;20544;-82
2022/08/23 06:43:33;;;;;;;2.40;1.88;;;22.80;55.10;;;;;;4988826;28;20605;-83
2022/08/23 06:46:24;;;;;;;2.78;2.00;;;22.80;55.10;;;;;;4999379;28;20026;-83
2022/08/23 06:48:50;;;;;;;3.15;2.10;;;22.80;55.20;;;;;;4983046;28;20030;-81
2022/08/23 06:51:34;;;;;;;2.58;2.17;;;22.80;55.30;;;;;;4983100;28;20124;-83
2022/08/23 06:54:24;;;;;;;3.30;2.10;;;22.90;55.50;;;;;;5002253;28;20060;-82
2022/08/23 06:57:19;;;;;;;3.35;2.40;;;22.90;55.40;;;;;;4987547;28;20026;-82
2022/08/23 07:00:01;;;;;;;3.72;2.42;;;22.90;55.40;;;;;;4999512;28;20042;-82
2022/08/23 07:02:52;;;;;;;3.97;2.53;;;22.90;55.50;;;;;;4989912;28;20046;-82
2022/08/23 07:05:36;;;;;;;3.17;2.20;;;23.00;55.50;;;;;;5001814;28;20444;-81
2022/08/23 07:08:11;;;;;;;3.20;2.28;;;23.00;55.50;;;;;;4984922;28;20038;-82
2022/08/23 07:10:38;;;;;;;2.83;2.20;;;23.10;55.60;;;;;;4999114;28;20037;-85
2022/08/23 07:13:04;;;;;;;3.10;2.50;;;23.10;55.60;;;;;;4983630;28;20030;-82
2022/08/23 07:15:29;;;;;;;3.22;2.30;;;23.10;55.60;;;;;;4967436;28;20034;-81
2022/08/23 07:17:55;;;;;;;3.70;2.40;;;23.10;55.60;;;;;;4999795;28;20025;-82
2022/08/23 07:20:21;;;;;;;2.88;2.33;;;23.20;55.60;;;;;;4982882;28;20395;-82
2022/08/23 07:22:48;;;;;;;2.85;2.30;;;23.20;55.60;;;;;;4966767;28;20026;-79
2022/08/23 07:25:14;;;;;;;3.25;2.10;;;23.20;55.60;;;;;;4982398;28;20030;-80
2022/08/23 07:27:41;;;;;;;3.15;2.30;;;23.30;55.60;;;;;;4998987;28;20026;-80
2022/08/23 07:30:08;;;;;;;2.55;2.08;;;23.30;55.60;;;;;;4966964;28;20045;-79
2022/08/23 07:32:36;;;;;;;3.22;2.22;;;23.30;55.60;;;;;;4982832;28;20041;-80
2022/08/23 07:35:18;;;;;;;4.28;2.55;;;23.30;55.60;;;;;;4984151;28;20029;-84
2022/08/23 07:37:44;;;;;;;2.67;2.20;;;23.40;55.60;;;;;;4988522;28;20044;-83
2022/08/23 07:40:11;;;;;;;3.33;2.33;;;23.40;55.70;;;;;;5001028;28;20038;-84
2022/08/23 07:42:37;;;;;;;4.00;2.40;;;23.40;55.60;;;;;;4997077;28;20021;-83
2022/08/23 07:45:04;;;;;;;2.90;2.30;;;23.50;55.70;;;;;;4982695;28;20517;-83
2022/08/23 07:47:32;;;;;;;3.47;2.45;;;23.50;55.70;;;;;;4983062;28;20116;-83
2022/08/23 07:49:59;;;;;;;3.42;2.30;;;23.50;55.70;;;;;;4966114;28;20045;-82
2022/08/23 07:52:25;;;;;;;2.60;2.20;;;23.50;55.70;;;;;;4981742;28;20033;-83
2022/08/23 07:54:51;;;;;;;3.63;2.67;;;23.50;55.60;;;;;;4981791;28;20041;-82
2022/08/23 07:57:39;;;;;;;3.03;2.03;;;23.60;55.70;;;;;;4973853;28;20042;-82
2022/08/23 08:00:30;;;;;;;5.50;2.30;;;23.60;55.60;;;;;;4985277;28;20123;-82
2022/08/23 08:03:13;;;;;;;3.25;2.63;;;23.60;55.60;;;;;;4984396;28;20207;-83
2022/08/23 08:06:34;;;;;;;2.67;2.22;;;23.60;55.60;;;;;;4985041;28;20103;-82
2022/08/23 08:09:00;;;;;;;3.17;2.40;;;23.70;55.70;;;;;;4985222;28;20180;-83
2022/08/23 08:11:30;;;;;;;3.75;2.70;;;23.70;55.60;;;;;;4982197;28;20381;-83
2022/08/23 08:14:02;;;;;;;3.60;2.60;;;23.70;55.70;;;;;;4982011;28;20026;-83
2022/08/23 08:16:41;;;;;;;3.85;2.53;;;23.80;55.70;;;;;;4981535;28;20101;-83
2022/08/23 08:19:11;;;;;;;3.33;2.70;;;23.80;55.70;;;;;;4997802;28;20040;-84
2022/08/23 08:21:55;;;;;;;3.22;2.30;;;23.80;55.70;;;;;;5000755;28;20045;-83
2022/08/23 08:24:33;;;;;;;3.45;2.50;;;23.80;55.60;;;;;;4968517;28;20054;-82
2022/08/23 08:27:07;;;;;;;3.03;2.33;;;23.90;55.70;;;;;;4983057;28;20029;-84
2022/08/23 08:29:33;;;;;;;3.03;2.33;;;23.90;55.60;;;;;;4981230;28;20044;-83
2022/08/23 08:31:59;;;;;;;3.90;2.45;;;24.00;55.60;;;;;;4965469;28;20475;-82
2022/08/23 08:34:25;;;;;;;3.25;2.55;;;24.00;55.60;;;;;;4981123;28;20030;-85
2022/08/23 08:36:54;;;;;;;3.78;2.72;;;24.10;55.60;;;;;;4981912;28;20442;-84
2022/08/23 08:39:27;;;;;;;4.07;2.88;;;24.10;55.50;;;;;;4997294;28;20050;-84
2022/08/23 08:42:06;;;;;;;3.83;2.50;;;24.20;55.40;;;;;;4982247;28;20030;-83
2022/08/23 08:44:50;;;;;;;3.33;2.70;;;24.20;55.30;;;;;;4997045;28;20125;-83
2022/08/23 08:47:29;;;;;;;3.65;2.50;;;24.30;55.30;;;;;;4997471;28;20114;-84
2022/08/23 08:50:04;;;;;;;4.40;2.63;;;24.40;55.20;;;;;;4997208;28;20052;-83
2022/08/23 08:52:43;;;;;;;5.30;2.58;;;24.40;55.10;;;;;;4997450;28;20045;-83
2022/08/23 08:55:23;;;;;;;3.97;2.45;;;24.50;55.10;;;;;;4982063;28;20042;-84
2022/08/23 08:57:53;;;;;;;3.83;2.60;;;24.60;55.10;;;;;;4981858;28;20026;-84
2022/08/23 09:00:29;;;;;;;4.35;2.30;;;24.70;55.00;;;;;;4981546;28;20443;-83
2022/08/23 09:02:58;;;;;;;4.10;2.42;;;24.70;55.00;;;;;;4981378;28;20488;-84
2022/08/23 09:05:30;;;;;;;4.30;2.38;;;24.80;55.00;;;;;;4996929;28;20033;-84
2022/08/23 09:08:23;;;;;;;5.00;2.80;;;24.90;55.00;;;;;;4997205;28;20084;-84
2022/08/23 09:11:00;;;;;;;3.65;2.30;;;25.00;55.00;;;;;;4967217;28;20038;-83
2022/08/23 09:13:46;;;;;;;2.97;2.25;;;25.10;54.90;;;;;;4981092;28;20026;-84
2022/08/23 09:16:48;;;;;;;4.15;2.28;;;25.20;55.00;;;;;;4981915;28;20049;-83
2022/08/23 09:19:14;;;;;;;4.13;2.60;;;25.30;55.00;;;;;;4997280;28;20073;-85
2022/08/23 09:21:56;;;;;;;3.58;2.30;;;25.40;54.80;;;;;;5002633;28;20036;-86
2022/08/23 09:24:23;;;;;;;3.17;2.20;;;25.40;54.90;;;;;;4999350;28;20026;-82
2022/08/23 09:27:15;;;;;;;3.47;2.25;;;25.50;54.80;;;;;;5010996;28;20038;-86
2022/08/23 09:29:52;;;;;;;3.90;2.20;;;25.60;54.70;;;;;;4981334;28;20034;-84
2022/08/23 09:32:36;;;;;;;4.20;2.40;;;25.70;54.80;;;;;;4997994;28;20054;-89
2022/08/23 09:35:21;;;;;;;4.43;2.40;;;25.80;54.80;;;;;;4982047;28;20029;-84
2022/08/23 09:38:15;;;;;;;3.28;2.08;;;26.00;54.90;;;;;;4981635;28;20048;-84
2022/08/23 09:40:46;;;;;;;3.10;1.98;;;26.00;54.70;;;;;;4980786;28;20088;-83
2022/08/23 09:43:17;;;;;;;2.90;2.22;;;26.20;54.70;;;;;;4980983;28;20030;-86
2022/08/23 09:45:49;;;;;;;3.67;1.95;;;26.30;54.70;;;;;;4997246;28;20029;-85
2022/08/23 09:48:32;;;;;;;3.35;2.03;;;26.40;54.70;;;;;;4996899;28;20038;-84
2022/08/23 09:51:13;;;;;;;3.63;1.90;;;26.40;54.60;;;;;;4980591;28;20057;-85
2022/08/23 09:53:42;;;;;;;2.40;1.90;;;26.50;54.60;;;;;;4981419;28;20044;-84
2022/08/23 09:56:15;;;;;;;2.92;2.08;;;26.70;54.70;;;;;;4996843;28;20026;-84
2022/08/23 09:58:45;;;;;;;2.53;1.90;;;26.80;54.70;;;;;;4997482;28;20022;-84
2022/08/23 10:01:20;;;;;;;2.63;1.65;;;26.90;54.70;;;;;;4981567;28;20457;-85
2022/08/23 10:04:44;;;;;;;2.70;1.73;;;27.00;54.70;;;;;;4981990;28;20037;-86
2022/08/23 10:07:44;;;;;;;2.50;1.60;;;27.10;54.80;;;;;;4923696;29;20102;-84
2022/08/23 10:10:17;;;;;;;2.75;1.88;;;27.20;54.80;;;;;;4987691;28;20474;-87
2022/08/23 10:12:45;;;;;;;3.42;1.70;;;27.30;54.60;;;;;;5003613;28;20061;-86
2022/08/23 10:15:13;;;;;;;3.10;1.85;;;27.40;54.70;;;;;;4987436;28;20084;-86
2022/08/23 10:18:01;;;;;;;3.30;2.05;;;27.50;54.70;;;;;;5003755;28;20052;-87
2022/08/23 10:20:38;;;;;;;2.42;1.60;;;27.60;54.80;;;;;;5003937;28;20049;-85
2022/08/23 10:23:32;;;;;;;1.80;1.55;;;27.70;55.40;;;;;;5003524;28;20030;-86
2022/08/23 10:25:58;;;;;;;2.40;1.63;;;27.80;54.90;;;;;;5003635;28;20362;-86
2022/08/23 10:31:50;;;;;;;2.25;1.58;;;28.00;54.90;;;;;;5015536;28;20052;-86
2022/08/23 10:35:08;;;;;;;2.35;1.67;;;28.20;55.10;;;;;;5002831;28;20018;-87
2022/08/23 10:37:47;;;;;;;2.20;1.50;;;28.30;55.10;;;;;;4992562;28;20041;-86
2022/08/23 10:40:28;;;;;;;2.47;1.70;;;28.40;55.00;;;;;;4987936;28;20045;-87
2022/08/23 10:43:13;;;;;;;2.60;1.40;;;28.50;55.00;;;;;;5003924;28;20075;-89
2022/08/23 10:45:42;;;;;;;1.67;1.42;;;28.60;55.20;;;;;;5003669;28;20524;-87
2022/08/23 10:48:27;;;;;;;2.28;1.40;;;28.70;55.00;;;;;;4988603;28;20485;-85
2022/08/23 10:51:02;;;;;;;1.40;1.30;;;28.80;54.90;;;;;;5002166;28;20498;-85
2022/08/23 10:53:36;;;;;;;2.13;1.45;;;28.90;54.90;;;;;;4986900;28;20051;-83
2022/08/23 10:56:03;;;;;;;2.85;1.75;;;29.00;54.90;;;;;;4987089;28;20528;-90
2022/08/23 10:58:35;;;;;;;1.60;1.33;;;29.10;55.00;;;;;;4987144;28;20030;-89
2022/08/23 11:01:02;;;;;;;2.80;1.63;;;29.20;55.10;;;;;;5003371;28;20026;-90
2022/08/23 11:03:32;;;;;;;1.45;1.30;;;29.30;55.10;;;;;;4987424;28;20386;-88
2022/08/23 11:06:24;;;;;;;2.08;1.70;;;29.30;55.10;;;;;;5003444;28;20025;-89
2022/08/23 11:09:06;;;;;;;1.77;1.25;;;29.40;55.40;;;;;;5002881;28;20065;-84
2022/08/23 11:11:37;;;;;;;2.55;1.45;;;29.50;56.30;;;;;;5002394;28;20044;-84
2022/08/23 11:14:03;;;;;;;2.70;1.40;;;29.50;55.60;;;;;;5002971;28;20496;-84
2022/08/23 11:16:30;;;;;;;1.65;1.38;;;29.60;55.60;;;;;;4986577;28;20041;-84
2022/08/23 11:18:57;;;;;;;1.50;1.30;;;29.70;56.00;;;;;;5000874;28;20129;-82
2022/08/23 11:21:41;;;;;;;1.75;1.38;;;29.80;56.30;;;;;;4985266;28;20032;-83
2022/08/23 11:24:12;;;;;;;1.80;1.30;;;29.80;56.50;;;;;;4983529;28;20026;-82
2022/08/23 11:26:40;;;;;;;2.25;1.58;;;29.90;56.70;;;;;;4999212;28;20040;-84
2022/08/23 11:29:06;;;;;;;2.97;1.55;;;29.90;57.00;;;;;;4999087;28;20036;-85
2022/08/23 11:31:41;;;;;;;1.42;1.33;;;29.90;57.20;;;;;;4999276;28;20121;-85
2022/08/23 11:34:12;;;;;;;2.15;1.60;;;30.00;57.30;;;;;;4983307;28;20121;-84
2022/08/23 11:36:38;;;;;;;2.55;1.70;;;30.10;57.10;;;;;;5018753;28;20032;-84
2022/08/23 11:39:11;;;;;;;1.83;1.45;;;30.10;57.10;;;;;;5006133;28;20034;-83
2022/08/23 11:41:55;;;;;;;1.65;1.45;;;30.10;57.40;;;;;;4998448;28;20030;-83
2022/08/23 11:44:41;;;;;;;2.05;1.35;;;30.20;57.70;;;;;;4998711;28;20030;-83
2022/08/23 11:47:11;;;;;;;1.52;1.33;;;30.20;57.70;;;;;;4983174;28;20062;-84
2022/08/23 11:49:59;;;;;;;1.70;1.40;;;30.30;57.80;;;;;;4985470;28;20065;-83
2022/08/23 11:52:56;;;;;;;1.58;1.33;;;30.30;57.90;;;;;;5001656;28;20073;-83
2022/08/23 11:55:46;;;;;;;1.52;1.42;;;30.30;58.00;;;;;;4998246;28;20028;-83
2022/08/23 11:58:44;;;;;;;1.70;1.50;;;30.30;58.00;;;;;;4998953;28;20034;-84
2022/08/23 12:01:12;;;;;;;2.15;1.40;;;30.30;58.00;;;;;;4998342;28;20036;-84
2022/08/23 12:03:57;;;;;;;1.75;1.50;;;30.40;57.90;;;;;;4997951;28;20413;-84
2022/08/23 12:06:38;;;;;;;1.40;1.30;;;30.40;58.00;;;;;;4998460;28;20038;-84
2022/08/23 12:09:11;;;;;;;2.38;1.52;;;30.50;58.00;;;;;;4998793;28;20037;-83
2022/08/23 12:11:55;;;;;;;1.90;1.48;;;30.50;58.10;;;;;;4982037;28;20489;-82
2022/08/23 12:14:40;;;;;;;1.50;1.40;;;30.50;58.10;;;;;;5015775;28;20152;-84
2022/08/23 12:17:11;;;;;;;;;;;30.60;58.10;;;;;;4998490;28;20030;-84
2022/08/23 12:19:47;;;;;;;1.80;1.25;;;30.60;57.90;;;;;;4997487;28;19917;-84
2022/08/23 12:22:16;;;;;;;1.70;1.33;;;30.60;57.90;;;;;;4997969;28;20034;-82
2022/08/23 12:24:46;;;;;;;2.33;1.60;;;30.60;57.90;;;;;;4981657;28;20049;-83
2022/08/23 12:27:40;;;;;;;1.40;1.27;;;30.60;58.00;;;;;;4997781;28;20509;-83
2022/08/23 12:30:09;;;;;;;1.40;1.25;;;30.60;58.10;;;;;;5015089;28;20109;-83
2022/08/23 12:33:04;;;;;;;1.80;1.50;;;30.70;57.90;;;;;;5019896;28;20029;-85
2022/08/23 12:35:42;;;;;;;1.75;1.50;;;30.70;57.90;;;;;;5000771;28;20480;-83
2022/08/23 12:38:33;;;;;;;2.45;1.52;;;30.70;57.60;;;;;;5015455;28;20029;-84
2022/08/23 12:41:31;;;;;;;2.10;1.50;;;30.70;57.40;;;;;;4981264;28;20566;-83
2022/08/23 12:44:08;;;;;;;1.05;1.00;;;30.80;57.30;;;;;;4996094;28;20049;-83
2022/08/23 12:46:39;;;;;;;2.33;1.50;;;30.80;57.20;;;;;;4980905;28;20092;-83
2022/08/23 12:49:07;;;;;;;2.08;1.40;;;30.80;57.10;;;;;;5014269;28;20069;-83
2022/08/23 12:51:40;;;;;;;1.30;1.20;;;30.90;57.10;;;;;;4980671;28;20053;-83
2022/08/23 12:54:15;;;;;;;2.83;1.57;;;30.90;57.10;;;;;;4981509;28;20025;-83
2022/08/23 12:56:49;;;;;;;2.33;1.30;;;30.90;57.00;;;;;;4996685;28;20034;-83
2022/08/23 12:59:37;;;;;;;1.85;1.30;;;30.90;57.00;;;;;;4981325;28;20033;-83
2022/08/23 13:02:17;;;;;;;2.03;1.35;;;31.00;57.00;;;;;;5015284;28;20040;-84
2022/08/23 13:04:42;;;;;;;2.00;1.40;;;31.00;56.90;;;;;;4997102;28;20021;-82
2022/08/23 13:07:16;;;;;;;2.17;1.42;;;31.00;56.80;;;;;;4985118;28;20034;-85
2022/08/23 13:09:42;;;;;;;2.53;1.40;;;31.00;56.80;;;;;;5000526;28;20037;-83
2022/08/23 13:12:09;;;;;;;1.65;1.33;;;31.10;56.80;;;;;;4996401;28;20269;-83
2022/08/23 13:14:41;;;;;;;1.48;1.20;;;31.10;56.70;;;;;;4996731;28;20022;-83
2022/08/23 13:17:25;;;;;;;1.70;1.30;;;31.10;56.70;;;;;;4996322;28;20096;-84
2022/08/23 13:20:18;;;;;;;1.83;1.33;;;31.10;56.70;;;;;;4996505;28;20038;-83
2022/08/23 13:23:05;;;;;;;1.77;1.20;;;31.10;56.60;;;;;;4980805;28;20034;-84
2022/08/23 13:25:35;;;;;;;1.20;1.10;;;31.20;56.60;;;;;;4996714;28;20371;-83
2022/08/23 13:28:26;;;;;;;1.50;1.20;;;31.20;56.50;;;;;;4996477;28;20033;-83
2022/08/23 13:31:07;;;;;;;1.25;1.10;;;31.20;56.40;;;;;;5033803;28;20084;-83